createdAt,value
2019-02-10T00:00:55.459Z,100062.80
2019-02-10T00:03:26.997Z,100062.62
2019-02-10T00:05:58.775Z,100073.88
2019-02-10T00:08:30.831Z,100070.38
2019-02-10T00:11:02.359Z,100071.51
2019-02-10T00:13:35.973Z,100075.02
2019-02-10T00:16:19.723Z,100087.63
2019-02-10T00:18:51.174Z,100075.78
2019-02-10T00:21:23.529Z,100083.45
2019-02-10T00:23:55.358Z,100076.72
2019-02-10T00:26:27.566Z,100083.55
2019-02-10T00:28:59.441Z,100082.39
2019-02-10T00:31:31.186Z,100086.06
2019-02-10T00:34:02.749Z,100073.97
2019-02-10T00:36:34.287Z,100082.12
2019-02-10T00:39:09.676Z,100088.53
2019-02-10T00:41:41.408Z,100081.75
2019-02-10T00:44:12.905Z,100081.05
2019-02-10T00:46:44.534Z,100089.47
2019-02-10T00:49:16.247Z,100087.86
2019-02-10T00:51:48.323Z,100089.30
2019-02-10T00:54:20.339Z,100098.73
2019-02-10T00:56:51.871Z,100093.55
2019-02-10T00:59:24.323Z,100101.56
2019-02-10T01:01:55.971Z,100094.84
2019-02-10T01:04:27.467Z,100083.55
2019-02-10T01:06:59.048Z,100083.01
2019-02-10T01:09:30.735Z,100083.55
2019-02-10T01:12:02.363Z,100085.50
2019-02-10T01:14:33.879Z,100083.69
2019-02-10T01:17:05.405Z,100085.12
2019-02-10T01:19:36.919Z,100073.34
2019-02-10T01:22:10.083Z,100077.20
2019-02-10T01:24:41.759Z,100080.70
2019-02-10T01:27:13.345Z,100075.77
2019-02-10T01:29:44.799Z,100070.87
2019-02-10T01:32:16.567Z,100079.80
2019-02-10T01:34:48.028Z,100074.36
2019-02-10T01:37:19.620Z,100071.16
2019-02-10T01:39:51.393Z,100075.91
2019-02-10T01:42:22.984Z,100072.58
2019-02-10T01:44:54.432Z,100084.11
2019-02-10T01:47:26.201Z,100076.41
2019-02-10T01:49:57.669Z,100080.27
2019-02-10T01:52:29.228Z,100082.29
2019-02-10T01:55:01.044Z,100080.22
2019-02-10T01:57:32.811Z,100077.61
2019-02-10T02:00:05.831Z,100069.30
2019-02-10T02:02:38.521Z,100078.70
2019-02-10T02:05:10.875Z,100070.47
2019-02-10T02:07:42.487Z,100069.61
2019-02-10T02:10:15.268Z,100081.70
2019-02-10T02:12:47.072Z,100073.14
2019-02-10T02:15:18.560Z,100072.80
2019-02-10T02:17:50.371Z,100079.48
2019-02-10T02:20:21.868Z,100078.92
2019-02-10T02:22:53.423Z,100075.39
2019-02-10T02:25:25.335Z,100069.42
2019-02-10T02:27:56.835Z,100071.55
2019-02-10T02:30:28.423Z,100086.25
2019-02-10T02:33:00.227Z,100076.05
2019-02-10T02:35:31.682Z,100093.34
2019-02-10T02:38:04.352Z,100068.59
2019-02-10T02:40:36.058Z,100066.83
2019-02-10T02:43:07.658Z,100061.37
2019-02-10T02:45:39.220Z,100069.55
2019-02-10T02:48:10.970Z,100069.73
2019-02-10T02:50:42.393Z,100065.40
2019-02-10T02:53:14.189Z,100061.69
2019-02-10T02:55:45.908Z,100077.47
2019-02-10T02:58:17.700Z,100059.33
2019-02-10T03:00:49.222Z,100068.52
2019-02-10T03:03:20.910Z,100072.08
2019-02-10T03:05:52.347Z,100060.32
2019-02-10T03:08:23.947Z,100061.30
2019-02-10T03:10:55.833Z,100062.91
2019-02-10T03:13:27.396Z,100064.81
2019-02-10T03:15:58.833Z,100075.92
2019-02-10T03:18:30.461Z,100069.42
2019-02-10T03:21:01.918Z,100066.75
2019-02-10T03:23:33.758Z,100070.20
2019-02-10T03:26:05.302Z,100066.77
2019-02-10T03:28:36.979Z,100076.70
2019-02-10T03:31:08.476Z,100072.08
2019-02-10T03:33:40.278Z,100078.12
2019-02-10T03:36:11.781Z,100071.68
2019-02-10T03:38:43.487Z,100070.59
2019-02-10T03:41:15.229Z,100070.31
2019-02-10T03:43:46.783Z,100075.27
2019-02-10T03:46:18.201Z,100068.59
2019-02-10T03:48:49.930Z,100068.64
2019-02-10T03:51:21.351Z,100067.99
2019-02-10T03:53:52.886Z,100070.97
2019-02-10T03:56:24.356Z,100067.87
2019-02-10T03:58:55.959Z,100064.02
2019-02-10T04:01:27.470Z,100064.45
2019-02-10T04:03:58.989Z,100062.49
2019-02-10T04:06:31.520Z,100062.37
2019-02-10T04:09:04.012Z,100050.30
2019-02-10T04:11:36.172Z,100056.31
2019-02-10T04:14:07.691Z,100056.84
2019-02-10T04:16:39.154Z,100055.41
2019-02-10T04:19:10.668Z,100053.64
2019-02-10T04:21:42.136Z,100063.65
2019-02-10T04:24:13.684Z,100064.97
2019-02-10T04:26:45.471Z,100053.66
2019-02-10T04:29:17.238Z,100047.34
2019-02-10T04:31:48.678Z,100052.83
2019-02-10T04:34:20.336Z,100044.23
2019-02-10T04:36:51.774Z,100050.53
2019-02-10T04:39:23.442Z,100048.85
2019-02-10T04:41:54.983Z,100043.28
2019-02-10T04:44:26.561Z,100053.34
2019-02-10T04:46:58.007Z,100045.70
2019-02-10T04:49:29.661Z,100040.23
2019-02-10T04:52:01.105Z,100042.12
2019-02-10T04:54:32.633Z,100041.72
2019-02-10T04:57:04.411Z,100044.08
2019-02-10T04:59:36.181Z,100045.31
2019-02-10T05:02:07.625Z,100044.33
2019-02-10T05:04:39.170Z,100045.50
2019-02-10T05:07:10.590Z,100046.80
2019-02-10T05:09:42.102Z,100044.73
2019-02-10T05:12:13.917Z,100044.73
2019-02-10T05:14:45.721Z,100042.38
2019-02-10T05:17:17.229Z,100049.59
2019-02-10T05:19:48.821Z,100048.22
2019-02-10T05:22:20.321Z,100054.14
2019-02-10T05:24:52.037Z,100048.81
2019-02-10T05:27:23.627Z,100046.98
2019-02-10T05:29:55.347Z,100053.30
2019-02-10T05:32:26.843Z,100055.59
2019-02-10T05:34:58.525Z,100056.02
2019-02-10T05:37:30.012Z,100055.90
2019-02-10T05:40:01.768Z,100059.33
2019-02-10T05:42:33.509Z,100056.02
2019-02-10T05:45:05.356Z,100060.73
2019-02-10T05:47:36.825Z,100060.08
2019-02-10T05:50:08.777Z,100068.00
2019-02-10T05:52:40.217Z,100070.47
2019-02-10T05:55:11.919Z,100063.82
2019-02-10T05:57:43.627Z,100065.13
2019-02-10T06:00:15.360Z,100059.27
2019-02-10T06:02:46.885Z,100057.84
2019-02-10T06:05:22.324Z,100054.23
2019-02-10T06:07:53.782Z,100056.30
2019-02-10T06:10:25.256Z,100061.44
2019-02-10T06:12:57.107Z,100061.87
2019-02-10T06:15:28.544Z,100057.72
2019-02-10T06:18:00.010Z,100064.34
2019-02-10T06:20:31.540Z,100062.34
2019-02-10T06:23:03.001Z,100064.34
2019-02-10T06:25:34.615Z,100060.85
2019-02-10T06:28:06.392Z,100059.73
2019-02-10T06:30:38.104Z,100051.75
2019-02-10T06:33:09.544Z,100055.66
2019-02-10T06:35:41.098Z,100041.55
2019-02-10T06:38:12.552Z,100054.41
2019-02-10T06:40:44.288Z,100053.05
2019-02-10T06:43:16.052Z,100054.47
2019-02-10T06:45:47.704Z,100054.01
2019-02-10T06:48:19.150Z,100059.67
2019-02-10T06:50:50.771Z,100051.99
2019-02-10T06:53:22.228Z,100059.14
2019-02-10T06:55:53.925Z,100057.77
2019-02-10T06:58:25.687Z,100064.55
2019-02-10T07:01:09.768Z,100072.66
2019-02-10T07:04:09.357Z,100073.70
2019-02-10T07:06:40.804Z,100065.23
2019-02-10T07:09:12.257Z,100069.64
2019-02-10T07:11:43.709Z,100073.81
2019-02-10T07:14:37.521Z,100074.07
2019-02-10T07:18:21.630Z,100079.77
2019-02-10T07:20:53.099Z,100073.92
2019-02-10T07:24:20.846Z,100072.81
2019-02-10T07:26:57.143Z,100080.72
2019-02-10T07:30:04.639Z,100077.65
2019-02-10T07:32:42.961Z,100071.64
2019-02-10T07:36:05.993Z,100070.94
2019-02-10T07:39:14.158Z,100070.45
2019-02-10T07:42:26.524Z,100069.36
2019-02-10T07:45:50.846Z,100073.47
2019-02-10T07:49:03.831Z,100066.08
2019-02-10T07:52:16.502Z,100073.55
2019-02-10T07:55:36.439Z,100060.61
2019-02-10T07:58:39.775Z,100059.38
2019-02-10T08:01:55.888Z,100069.69
2019-02-10T08:05:37.038Z,100051.22
2019-02-10T08:08:48.119Z,100041.69
2019-02-10T08:12:44.253Z,100047.22
2019-02-10T08:15:46.717Z,100039.28
2019-02-10T08:19:28.797Z,100043.37
2019-02-10T08:22:44.534Z,100036.09
2019-02-10T08:26:06.330Z,100035.06
2019-02-10T08:29:26.452Z,100029.28
2019-02-10T08:33:01.999Z,100028.33
2019-02-10T08:35:52.397Z,100023.77
2019-02-10T08:39:36.512Z,100025.56
2019-02-10T08:42:37.921Z,100016.44
2019-02-10T08:46:02.610Z,100015.73
2019-02-10T08:49:31.579Z,100006.13
2019-02-10T08:52:51.907Z,100001.01
2019-02-10T08:55:20.792Z,100006.70
2019-02-10T08:57:52.220Z,100002.44
2019-02-10T09:00:23.873Z,99993.37
2019-02-10T09:02:55.314Z,99995.91
2019-02-10T09:05:27.208Z,99986.39
2019-02-10T09:07:58.741Z,99990.41
2019-02-10T09:10:30.557Z,99985.25
2019-02-10T09:13:02.199Z,99978.13
2019-02-10T09:15:33.746Z,99984.13
2019-02-10T09:18:05.258Z,99977.50
2019-02-10T09:20:37.782Z,99977.49
2019-02-10T09:23:09.271Z,99971.16
2019-02-10T09:25:40.741Z,99977.60
2019-02-10T09:28:12.248Z,99976.17
2019-02-10T09:30:43.834Z,99970.27
2019-02-10T09:33:27.359Z,99974.30
2019-02-10T09:35:59.177Z,99977.19
2019-02-10T09:38:30.714Z,99968.70
2019-02-10T09:41:02.398Z,99966.15
2019-02-10T09:43:33.910Z,99975.79
2019-02-10T09:46:05.444Z,99965.27
2019-02-10T09:48:36.948Z,99954.86
2019-02-10T09:51:08.821Z,99959.91
2019-02-10T09:53:41.333Z,99952.05
2019-02-10T09:56:13.159Z,99952.52
2019-02-10T09:58:44.685Z,99951.52
2019-02-10T10:01:16.469Z,99952.73
2019-02-10T10:03:48.044Z,99945.11
2019-02-10T10:06:20.198Z,99940.70
2019-02-10T10:08:51.677Z,99943.78
2019-02-10T10:11:23.495Z,99941.84
2019-02-10T10:13:54.961Z,99934.95
2019-02-10T10:16:26.704Z,99937.45
2019-02-10T10:18:58.230Z,99935.52
2019-02-10T10:21:30.215Z,99934.10
2019-02-10T10:24:01.853Z,99920.39
2019-02-10T10:26:33.364Z,99925.92
2019-02-10T10:29:04.888Z,99921.23
2019-02-10T10:31:36.416Z,99913.80
2019-02-10T10:34:07.988Z,99912.45
2019-02-10T10:36:40.155Z,99906.47
2019-02-10T10:39:11.622Z,99907.29
2019-02-10T10:41:43.287Z,99898.59
2019-02-10T10:44:14.754Z,99883.62
2019-02-10T10:46:46.303Z,99882.99
2019-02-10T10:49:17.788Z,99873.98
2019-02-10T10:51:49.574Z,99871.64
2019-02-10T10:54:21.143Z,99864.59
2019-02-10T10:56:52.849Z,99858.45
2019-02-10T10:59:24.480Z,99853.52
2019-02-10T11:01:56.224Z,99845.53
2019-02-10T11:04:27.746Z,99845.88
2019-02-10T11:06:59.925Z,99843.95
2019-02-10T11:09:35.601Z,99835.97
2019-02-10T11:12:04.908Z,99837.07
2019-02-10T11:14:36.358Z,99831.63
2019-02-10T11:17:10.481Z,99819.40
2019-02-10T11:19:41.317Z,99810.77
2019-02-10T11:22:13.372Z,99806.83
2019-02-10T11:24:45.169Z,99801.36
2019-02-10T11:27:17.050Z,99801.52
2019-02-10T11:29:48.617Z,99790.73
2019-02-10T11:32:20.402Z,99788.59
2019-02-10T11:34:51.953Z,99779.08
2019-02-10T11:37:26.858Z,99772.55
2019-02-10T11:39:57.348Z,99760.42
2019-02-10T11:42:28.843Z,99757.58
2019-02-10T11:45:00.484Z,99760.22
2019-02-10T11:47:32.291Z,99756.92
2019-02-10T11:50:03.859Z,99758.09
2019-02-10T11:52:36.326Z,99748.95
2019-02-10T11:55:08.128Z,99744.09
2019-02-10T11:57:40.376Z,99734.70
2019-02-10T12:00:12.986Z,99730.25
2019-02-10T12:02:44.798Z,99726.63
2019-02-10T12:05:16.340Z,99721.84
2019-02-10T12:07:48.399Z,99722.07
2019-02-10T12:10:20.077Z,99710.31
2019-02-10T12:12:51.836Z,99707.73
2019-02-10T12:15:23.425Z,99696.47
2019-02-10T12:17:55.223Z,99694.67
2019-02-10T12:20:26.929Z,99693.92
2019-02-10T12:22:59.168Z,99693.69
2019-02-10T12:25:30.754Z,99689.88
2019-02-10T12:28:02.709Z,99677.41
2019-02-10T12:30:34.375Z,99667.66
2019-02-10T12:33:06.302Z,99667.06
2019-02-10T12:35:37.811Z,99663.36
2019-02-10T12:38:09.820Z,99654.86
2019-02-10T12:40:41.818Z,99648.19
2019-02-10T12:43:13.722Z,99640.08
2019-02-10T12:45:45.370Z,99638.77
2019-02-10T12:48:17.276Z,99636.89
2019-02-10T12:50:48.874Z,99622.61
2019-02-10T12:53:20.780Z,99623.99
2019-02-10T12:55:52.412Z,99610.48
2019-02-10T12:58:23.895Z,99611.48
2019-02-10T13:00:55.488Z,99602.84
2019-02-10T13:03:27.132Z,99598.41
2019-02-10T13:05:58.900Z,99587.09
2019-02-10T13:08:31.125Z,99587.48
2019-02-10T13:11:02.661Z,99575.67
2019-02-10T13:13:34.579Z,99572.42
2019-02-10T13:16:06.175Z,99574.36
2019-02-10T13:18:38.179Z,99565.28
2019-02-10T13:21:11.008Z,99564.39
2019-02-10T13:23:43.119Z,99543.98
2019-02-10T13:26:14.841Z,99543.88
2019-02-10T13:28:46.627Z,99543.17
2019-02-10T13:31:18.177Z,99542.93
2019-02-10T13:33:50.053Z,99535.72
2019-02-10T13:36:21.606Z,99524.12
2019-02-10T13:38:53.696Z,99535.14
2019-02-10T13:41:35.325Z,99526.40
2019-02-10T13:44:08.377Z,99521.32
2019-02-10T13:46:40.116Z,99522.17
2019-02-10T13:49:11.804Z,99506.05
2019-02-10T13:51:43.310Z,99500.65
2019-02-10T13:54:15.417Z,99504.59
2019-02-10T13:56:47.005Z,99492.96
2019-02-10T13:59:18.761Z,99488.86
2019-02-10T14:01:50.466Z,99485.26
2019-02-10T14:04:22.149Z,99479.92
2019-02-10T14:06:53.821Z,99470.07
2019-02-10T14:09:25.776Z,99464.11
2019-02-10T14:11:57.257Z,99464.21
2019-02-10T14:14:29.185Z,99459.27
2019-02-10T14:17:01.927Z,99457.43
2019-02-10T14:19:35.245Z,99449.20
2019-02-10T14:22:06.799Z,99445.83
2019-02-10T14:24:38.722Z,99455.02
2019-02-10T14:27:10.214Z,99450.75
2019-02-10T14:29:41.722Z,99451.72
2019-02-10T14:32:13.264Z,99448.36
2019-02-10T14:34:44.913Z,99448.80
2019-02-10T14:37:16.418Z,99432.98
2019-02-10T14:39:48.142Z,99438.16
2019-02-10T14:42:19.696Z,99426.38
2019-02-10T14:44:51.484Z,99414.89
2019-02-10T14:47:23.020Z,99411.45
2019-02-10T14:49:54.664Z,99412.42
2019-02-10T14:52:26.380Z,99411.82
2019-02-10T14:54:58.071Z,99397.40
2019-02-10T14:57:29.686Z,99386.55
2019-02-10T15:00:01.265Z,99383.19
2019-02-10T15:02:34.594Z,99373.53
2019-02-10T15:05:06.564Z,99363.88
2019-02-10T15:07:38.244Z,99364.21
2019-02-10T15:10:13.104Z,99367.63
2019-02-10T15:12:44.695Z,99348.83
2019-02-10T15:15:16.586Z,99342.09
2019-02-10T15:17:48.242Z,99327.45
2019-02-10T15:20:19.991Z,99322.66
2019-02-10T15:22:51.604Z,99312.63
2019-02-10T15:25:23.551Z,99306.22
2019-02-10T15:27:55.105Z,99296.36
2019-02-10T15:30:26.860Z,99292.72
2019-02-10T15:32:58.607Z,99293.78
2019-02-10T15:35:30.458Z,99289.42
2019-02-10T15:38:01.985Z,99286.50
2019-02-10T15:40:34.091Z,99284.44
2019-02-10T15:43:05.677Z,99278.11
2019-02-10T15:45:37.775Z,99274.93
2019-02-10T15:48:09.591Z,99274.19
2019-02-10T15:50:41.309Z,99273.27
2019-02-10T15:53:12.833Z,99263.63
2019-02-10T15:55:44.595Z,99251.31
2019-02-10T15:58:16.368Z,99247.05
2019-02-10T16:00:48.232Z,99252.00
2019-02-10T16:03:20.209Z,99244.85
2019-02-10T16:05:51.929Z,99239.38
2019-02-10T16:08:24.828Z,99230.62
2019-02-10T16:10:58.474Z,99230.07
2019-02-10T16:13:30.322Z,99218.28
2019-02-10T16:16:01.964Z,99217.23
2019-02-10T16:18:33.429Z,99203.56
2019-02-10T16:21:05.656Z,99202.40
2019-02-10T16:23:38.386Z,99200.78
2019-02-10T16:26:10.712Z,99193.64
2019-02-10T16:28:42.898Z,99191.81
2019-02-10T16:31:14.429Z,99184.80
2019-02-10T16:33:46.024Z,99175.94
2019-02-10T16:36:17.788Z,99171.61
2019-02-10T16:38:49.368Z,99166.28
2019-02-10T16:41:21.732Z,99162.98
2019-02-10T16:43:53.545Z,99165.14
2019-02-10T16:46:25.536Z,99169.98
2019-02-10T16:48:57.041Z,99167.80
2019-02-10T16:51:28.793Z,99162.84
2019-02-10T16:54:00.441Z,99162.12
2019-02-10T16:56:32.685Z,99163.52
2019-02-10T16:59:04.976Z,99157.62
2019-02-10T17:01:38.047Z,99147.21
2019-02-10T17:04:09.724Z,99142.67
2019-02-10T17:06:41.639Z,99144.11
2019-02-10T17:09:13.649Z,99128.80
2019-02-10T17:11:45.591Z,99122.96
2019-02-10T17:14:17.256Z,99117.05
2019-02-10T17:16:49.407Z,99123.74
2019-02-10T17:19:20.922Z,99113.72
2019-02-10T17:21:52.956Z,99119.48
2019-02-10T17:24:24.540Z,99115.50
2019-02-10T17:26:56.971Z,99113.06
2019-02-10T17:29:28.799Z,99109.50
2019-02-10T17:32:01.122Z,99099.73
2019-02-10T17:34:33.011Z,99094.94
2019-02-10T17:37:04.586Z,99087.83
2019-02-10T17:39:36.308Z,99079.48
2019-02-10T17:42:08.330Z,99077.45
2019-02-10T17:44:40.075Z,99068.11
2019-02-10T17:47:11.957Z,99062.55
2019-02-10T17:49:43.690Z,99051.83
2019-02-10T17:52:15.732Z,99042.29
2019-02-10T17:54:48.376Z,99035.77
2019-02-10T17:57:20.539Z,99043.20
2019-02-10T17:59:52.181Z,99036.78
2019-02-10T18:02:24.038Z,99032.19
2019-02-10T18:04:55.763Z,99031.59
2019-02-10T18:07:27.571Z,99025.47
2019-02-10T18:09:59.251Z,99032.61
2019-02-10T18:12:31.307Z,99028.56
2019-02-10T18:15:20.362Z,99025.65
2019-02-10T18:18:20.222Z,99028.66
2019-02-10T18:21:04.631Z,99018.28
2019-02-10T18:23:54.384Z,99011.47
2019-02-10T18:26:34.220Z,99002.34
2019-02-10T18:29:16.951Z,99009.06
2019-02-10T18:32:10.365Z,99012.77
2019-02-10T18:34:58.290Z,99004.19
2019-02-10T18:37:49.658Z,99011.39
2019-02-10T18:40:32.796Z,98998.36
2019-02-10T18:43:14.878Z,98996.70
2019-02-10T18:46:02.753Z,99001.66
2019-02-10T18:49:00.830Z,99005.05
2019-02-10T18:52:03.343Z,98999.45
2019-02-10T18:54:52.845Z,98993.48
2019-02-10T18:57:43.387Z,98994.78
2019-02-10T19:00:34.157Z,98992.94
2019-02-10T19:03:22.324Z,98978.96
2019-02-10T19:06:25.368Z,98973.85
2019-02-10T19:09:19.712Z,98966.75
2019-02-10T19:12:22.289Z,98965.63
2019-02-10T19:15:15.838Z,98958.99
2019-02-10T19:18:09.205Z,98949.14
2019-02-10T19:20:58.092Z,98944.13
2019-02-10T19:24:03.612Z,98944.72
2019-02-10T19:26:57.427Z,98942.41
2019-02-10T19:29:56.708Z,98933.72
2019-02-10T19:32:47.358Z,98932.37
2019-02-10T19:35:31.501Z,98934.39
2019-02-10T19:38:26.851Z,98928.88
2019-02-10T19:41:23.456Z,98913.18
2019-02-10T19:44:10.513Z,98918.28
2019-02-10T19:47:13.342Z,98934.69
2019-02-10T19:50:06.829Z,98930.78
2019-02-10T19:52:47.704Z,98970.00
2019-02-10T19:55:34.514Z,98971.50
2019-02-10T19:58:23.545Z,98969.75
2019-02-10T20:01:17.577Z,98976.61
2019-02-10T20:04:10.838Z,98975.61
2019-02-10T20:07:00.365Z,98976.11
2019-02-10T20:09:55.184Z,98969.73
2019-02-10T20:12:52.207Z,98964.48
2019-02-10T20:15:48.714Z,98956.39
2019-02-10T20:18:42.182Z,98954.73
2019-02-10T20:21:21.321Z,98955.26
2019-02-10T20:24:21.368Z,98947.80
2019-02-10T20:27:12.541Z,98948.06
2019-02-10T20:30:03.288Z,98935.09
2019-02-10T20:33:04.040Z,98925.48
2019-02-10T20:35:53.222Z,98923.36
2019-02-10T20:38:39.663Z,98909.95
2019-02-10T20:41:30.443Z,98913.91
2019-02-10T20:44:32.894Z,98907.73
2019-02-10T20:47:18.205Z,98902.86
2019-02-10T20:50:11.647Z,98897.51
2019-02-10T20:53:09.237Z,98896.89
2019-02-10T20:56:02.650Z,98897.75
2019-02-10T20:58:42.759Z,98884.47
2019-02-10T21:01:48.194Z,98870.66
2019-02-10T21:04:43.229Z,98876.72
2019-02-10T21:07:33.655Z,98872.33
2019-02-10T21:10:23.778Z,98872.50
2019-02-10T21:13:17.185Z,98863.58
2019-02-10T21:16:02.858Z,98857.83
2019-02-10T21:18:49.327Z,98852.78
2019-02-10T21:21:28.405Z,98849.19
2019-02-10T21:24:17.389Z,98847.81
2019-02-10T21:27:08.317Z,98846.38
2019-02-10T21:30:01.686Z,98836.70
2019-02-10T21:32:49.805Z,98831.64
2019-02-10T21:35:30.814Z,98826.80
2019-02-10T21:38:12.244Z,98828.98
2019-02-10T21:40:53.435Z,98823.95
2019-02-10T21:43:32.745Z,98821.89
2019-02-10T21:46:19.732Z,98807.91
2019-02-10T21:49:00.373Z,98810.55
2019-02-10T21:51:32.017Z,98803.66
2019-02-10T21:54:03.545Z,98799.66
2019-02-10T21:56:35.135Z,98798.44
2019-02-10T21:59:06.749Z,98800.30
2019-02-10T22:01:38.293Z,98798.62
2019-02-10T22:04:09.916Z,98794.61
2019-02-10T22:06:41.524Z,98801.33
2019-02-10T22:09:13.101Z,98793.89
2019-02-10T22:11:45.110Z,98796.45
2019-02-10T22:14:16.847Z,98795.81
2019-02-10T22:16:49.324Z,98781.86
2019-02-10T22:19:21.081Z,98775.72
2019-02-10T22:21:52.944Z,98777.17
2019-02-10T22:24:24.571Z,98783.16
2019-02-10T22:26:56.184Z,98779.25
2019-02-10T22:29:27.999Z,98773.70
2019-02-10T22:31:59.503Z,98776.41
2019-02-10T22:34:31.074Z,98771.70
2019-02-10T22:37:02.795Z,98770.00
2019-02-10T22:39:34.460Z,98768.84
2019-02-10T22:42:06.181Z,98766.09
2019-02-10T22:44:38.070Z,98775.14
2019-02-10T22:47:09.634Z,98771.34
2019-02-10T22:49:41.702Z,98775.38
2019-02-10T22:52:13.507Z,98773.53
2019-02-10T22:54:45.287Z,98759.24
2019-02-10T22:57:16.817Z,98753.83
2019-02-10T22:59:48.604Z,98753.08
2019-02-10T23:02:20.135Z,98749.48
2019-02-10T23:04:51.905Z,98744.68
2019-02-10T23:07:23.652Z,98739.00
2019-02-10T23:09:55.530Z,98743.75
2019-02-10T23:12:27.030Z,98744.68
2019-02-10T23:14:58.755Z,98745.88
2019-02-10T23:17:30.218Z,98737.86
2019-02-10T23:20:01.810Z,98739.09
2019-02-10T23:22:33.897Z,98741.50
2019-02-10T23:25:06.188Z,98728.98
2019-02-10T23:27:37.761Z,98725.80
2019-02-10T23:30:09.341Z,98728.68
2019-02-10T23:32:40.915Z,98726.14
2019-02-10T23:35:12.457Z,98721.21
2019-02-10T23:37:43.979Z,98714.33
2019-02-10T23:40:15.485Z,98717.06
2019-02-10T23:42:46.928Z,98720.09
2019-02-10T23:45:18.393Z,98715.11
2019-02-10T23:47:50.104Z,98721.38
2019-02-10T23:50:22.085Z,98715.63
2019-02-10T23:52:53.933Z,98712.78
2019-02-10T23:55:26.147Z,98711.34
2019-02-10T23:57:57.749Z,98697.74
